createdAt,value
2023-02-28T00:00:31.479Z,62248.35
2023-02-28T00:01:34.763Z,62239.83
2023-02-28T00:02:38.377Z,62240.22
2023-02-28T00:03:40.437Z,62255.80
2023-02-28T00:04:42.677Z,62238.06
2023-02-28T00:05:44.565Z,62232.11
2023-02-28T00:06:46.656Z,62230.76
2023-02-28T00:07:50.740Z,62246.19
2023-02-28T00:08:53.334Z,62249.57
2023-02-28T00:09:55.826Z,62242.26
2023-02-28T00:11:04.081Z,62242.00
2023-02-28T00:12:06.276Z,62252.14
2023-02-28T00:13:08.175Z,62243.62
2023-02-28T00:14:10.213Z,62239.43
2023-02-28T00:15:12.419Z,62248.91
2023-02-28T00:16:19.037Z,62241.17
2023-02-28T00:17:21.362Z,62239.28
2023-02-28T00:18:23.623Z,62240.22
2023-02-28T00:19:26.280Z,62221.42
2023-02-28T00:20:28.374Z,62237.80
2023-02-28T00:21:30.771Z,62265.15
2023-02-28T00:22:32.971Z,62244.03
2023-02-28T00:23:35.088Z,62218.02
2023-02-28T00:24:37.444Z,62223.43
2023-02-28T00:25:39.457Z,62226.30
2023-02-28T00:26:41.565Z,62228.31
2023-02-28T00:27:44.917Z,62222.49
2023-02-28T00:28:46.878Z,62227.92
2023-02-28T00:29:49.905Z,62218.02
2023-02-28T00:30:52.210Z,62236.58
2023-02-28T00:31:55.841Z,62242.00
2023-02-28T00:32:59.238Z,62236.97
2023-02-28T00:34:01.161Z,62232.24
2023-02-28T00:35:04.888Z,62229.40
2023-02-28T00:36:10.478Z,62221.27
2023-02-28T00:37:13.509Z,62209.10
2023-02-28T00:38:16.401Z,62206.25
2023-02-28T00:39:18.631Z,62208.82
2023-02-28T00:40:21.861Z,62206.53
2023-02-28T00:41:23.749Z,62210.04
2023-02-28T00:42:26.349Z,62227.24
2023-02-28T00:43:28.306Z,62225.61
2023-02-28T00:44:30.995Z,62235.37
2023-02-28T00:45:33.350Z,62223.73
2023-02-28T00:46:35.636Z,62205.57
2023-02-28T00:47:37.733Z,62220.33
2023-02-28T00:48:40.198Z,62230.23
2023-02-28T00:49:43.086Z,62229.40
2023-02-28T00:50:47.058Z,62220.73
2023-02-28T00:51:49.963Z,62226.68
2023-02-28T00:52:51.954Z,62227.24
2023-02-28T00:53:53.883Z,62217.48
2023-02-28T00:54:56.543Z,62225.06
2023-02-28T00:55:58.872Z,62197.45
2023-02-28T00:57:01.398Z,62205.57
2023-02-28T00:58:03.427Z,62203.00
2023-02-28T00:59:06.178Z,62219.64
2023-02-28T01:00:10.545Z,62213.83
2023-02-28T01:01:12.611Z,62223.58
2023-02-28T01:02:15.127Z,62228.60
2023-02-28T01:03:18.809Z,62220.20
2023-02-28T01:04:21.280Z,62212.07
2023-02-28T01:05:23.533Z,62210.98
2023-02-28T01:06:25.827Z,62206.66
2023-02-28T01:07:27.873Z,62203.69
2023-02-28T01:08:30.057Z,62201.91
2023-02-28T01:09:32.058Z,62216.01
2023-02-28T01:10:34.447Z,62223.58
2023-02-28T01:11:37.186Z,62223.04
2023-02-28T01:12:39.176Z,62226.42
2023-02-28T01:13:42.010Z,62234.81
2023-02-28T01:14:43.913Z,62213.44
2023-02-28T01:15:55.458Z,62218.17
2023-02-28T01:16:57.635Z,62225.61
2023-02-28T01:17:59.514Z,62221.42
2023-02-28T01:19:01.401Z,62217.76
2023-02-28T01:20:04.398Z,62190.69
2023-02-28T01:21:09.602Z,62187.70
2023-02-28T01:22:11.685Z,62185.00
2023-02-28T01:23:13.617Z,62204.09
2023-02-28T01:24:15.502Z,62192.16
2023-02-28T01:25:17.698Z,62206.66
2023-02-28T01:26:24.181Z,62205.57
2023-02-28T01:27:26.137Z,62196.91
2023-02-28T01:28:28.009Z,62189.32
2023-02-28T01:29:30.807Z,62209.89
2023-02-28T01:30:33.224Z,62201.38
2023-02-28T01:31:35.476Z,62204.48
2023-02-28T01:32:37.431Z,62197.59
2023-02-28T01:33:40.654Z,62199.75
2023-02-28T01:34:42.554Z,62202.32
2023-02-28T01:35:44.505Z,62214.91
2023-02-28T01:36:46.952Z,62214.64
2023-02-28T01:37:48.995Z,62188.93
2023-02-28T01:38:52.190Z,62188.52
2023-02-28T01:39:54.337Z,62201.23
2023-02-28T01:40:57.261Z,62200.16
2023-02-28T01:41:59.159Z,62195.82
2023-02-28T01:43:01.033Z,62199.22
2023-02-28T01:44:09.714Z,62207.88
2023-02-28T01:46:36.184Z,62204.48
2023-02-28T01:47:42.155Z,62201.53
2023-02-28T01:48:47.812Z,62196.50
2023-02-28T01:49:51.266Z,62190.95
2023-02-28T01:50:57.053Z,62173.09
2023-02-28T01:51:59.301Z,62177.83
2023-02-28T01:53:05.004Z,62182.82
2023-02-28T01:54:10.661Z,62186.75
2023-02-28T01:55:14.127Z,62189.87
2023-02-28T01:56:20.036Z,62172.00
2023-02-28T01:57:25.761Z,62172.28
2023-02-28T01:58:27.888Z,62193.66
2023-02-28T01:59:39.729Z,62182.82
2023-02-28T02:00:42.089Z,62162.25
2023-02-28T02:01:44.261Z,62175.79
2023-02-28T02:02:50.137Z,62190.95
2023-02-28T02:03:56.197Z,62190.95
2023-02-28T02:05:05.394Z,62190.41
2023-02-28T02:06:07.708Z,62189.47
2023-02-28T02:07:11.103Z,62186.07
2023-02-28T02:08:19.920Z,62163.34
2023-02-28T02:09:21.958Z,62173.09
2023-02-28T02:10:37.170Z,62164.56
2023-02-28T02:11:42.831Z,62170.91
2023-02-28T02:13:15.278Z,62199.61
2023-02-28T02:14:29.435Z,62195.82
2023-02-28T02:15:44.333Z,62200.55
2023-02-28T02:17:05.542Z,62166.19
2023-02-28T02:18:23.314Z,62195.41
2023-02-28T02:19:28.987Z,62188.25
2023-02-28T02:21:02.205Z,62193.79
2023-02-28T02:22:16.593Z,62184.06
2023-02-28T02:23:48.282Z,62176.34
2023-02-28T02:25:06.239Z,62187.16
2023-02-28T02:26:21.076Z,62186.07
2023-02-28T02:27:46.473Z,62180.13
2023-02-28T02:29:15.272Z,62153.19
2023-02-28T02:30:26.669Z,62164.97
2023-02-28T02:33:37.811Z,62149.94
2023-02-28T02:36:05.002Z,62179.18
2023-02-28T02:37:32.272Z,62188.64
2023-02-28T02:38:42.184Z,62195.82
2023-02-28T02:39:57.072Z,62169.84
2023-02-28T02:41:05.695Z,62162.25
2023-02-28T02:42:11.644Z,62169.44
2023-02-28T02:43:23.376Z,62167.28
2023-02-28T02:44:46.508Z,62155.91
2023-02-28T02:45:52.208Z,62165.50
2023-02-28T02:46:57.993Z,62179.31
2023-02-28T02:48:03.990Z,62167.41
2023-02-28T02:49:09.940Z,62186.07
2023-02-28T02:50:17.038Z,62185.39
2023-02-28T02:51:24.477Z,62174.16
2023-02-28T02:52:30.149Z,62178.91
2023-02-28T02:53:35.826Z,62172.83
2023-02-28T02:54:41.317Z,62168.75
2023-02-28T02:55:46.663Z,62187.16
2023-02-28T02:56:50.948Z,62197.59
2023-02-28T02:57:56.627Z,62210.84
2023-02-28T02:59:02.443Z,62196.50
2023-02-28T03:00:06.991Z,62195.29
2023-02-28T03:01:12.732Z,62163.34
2023-02-28T03:02:17.333Z,62165.25
2023-02-28T03:03:20.251Z,62180.94
2023-02-28T03:04:25.237Z,62176.62
2023-02-28T03:05:30.944Z,62168.75
2023-02-28T03:06:33.177Z,62154.28
2023-02-28T03:07:35.310Z,62166.59
2023-02-28T03:08:38.811Z,62166.06
2023-02-28T03:09:51.276Z,62163.34
2023-02-28T03:10:59.863Z,62143.86
2023-02-28T03:12:03.918Z,62143.59
2023-02-28T03:13:12.333Z,62173.09
2023-02-28T03:14:20.760Z,62178.36
2023-02-28T03:15:32.756Z,62182.97
2023-02-28T03:16:44.451Z,62153.75
2023-02-28T03:17:48.095Z,62159.30
2023-02-28T03:18:59.577Z,62153.07
2023-02-28T03:20:08.156Z,62166.45
2023-02-28T03:21:16.749Z,62151.71
2023-02-28T03:22:33.982Z,62152.12
2023-02-28T03:24:09.515Z,62159.01
2023-02-28T03:25:33.977Z,62174.84
2023-02-28T03:26:39.758Z,62172.00
2023-02-28T03:27:54.340Z,62157.94
2023-02-28T03:29:12.043Z,62166.19
2023-02-28T03:30:27.067Z,62154.69
2023-02-28T03:31:41.952Z,62180.66
2023-02-28T03:33:03.249Z,62180.66
2023-02-28T03:34:08.939Z,62158.62
2023-02-28T03:36:25.756Z,62188.25
2023-02-28T03:37:31.389Z,62194.73
2023-02-28T03:38:52.166Z,62174.16
2023-02-28T03:39:57.845Z,62167.81
2023-02-28T03:41:09.439Z,62131.16
2023-02-28T03:42:13.098Z,62148.19
2023-02-28T03:43:18.790Z,62142.79
2023-02-28T03:44:36.508Z,62146.57
2023-02-28T03:45:41.673Z,62167.13
2023-02-28T03:46:50.492Z,62169.84
2023-02-28T03:48:08.528Z,62154.28
2023-02-28T03:50:38.193Z,62159.69
2023-02-28T03:51:43.170Z,62160.10
2023-02-28T03:52:48.846Z,62173.09
2023-02-28T03:53:54.675Z,62180.13
2023-02-28T03:55:00.499Z,62175.66
2023-02-28T03:56:24.313Z,62154.69
2023-02-28T03:57:30.021Z,62158.88
2023-02-28T03:58:59.980Z,62156.57
2023-02-28T04:00:09.217Z,62165.65
2023-02-28T04:01:24.379Z,62171.21
2023-02-28T04:02:27.976Z,62183.50
2023-02-28T04:03:30.082Z,62172.54
2023-02-28T04:04:32.195Z,62172.00
2023-02-28T04:07:11.454Z,62182.43
2023-02-28T04:08:13.361Z,62170.91
2023-02-28T04:09:15.399Z,62154.28
2023-02-28T04:10:18.314Z,62184.86
2023-02-28T04:11:38.917Z,62175.79
2023-02-28T04:12:40.878Z,62173.63
2023-02-28T04:13:42.772Z,62179.59
2023-02-28T04:14:44.822Z,62153.87
2023-02-28T04:15:46.703Z,62153.87
2023-02-28T04:16:49.323Z,62167.66
2023-02-28T04:17:51.345Z,62183.91
2023-02-28T04:18:53.356Z,62179.04
2023-02-28T04:19:55.245Z,62167.28
2023-02-28T04:21:02.512Z,62182.29
2023-02-28T04:22:04.494Z,62192.57
2023-02-28T04:23:07.600Z,62200.16
2023-02-28T04:24:12.211Z,62207.20
2023-02-28T04:25:14.383Z,62206.25
2023-02-28T04:26:16.415Z,62202.32
2023-02-28T04:27:19.401Z,62214.23
2023-02-28T04:28:22.156Z,62216.39
2023-02-28T04:29:30.558Z,62216.39
2023-02-28T04:30:32.925Z,62204.63
2023-02-28T04:31:34.828Z,62205.57
2023-02-28T04:32:36.915Z,62198.54
2023-02-28T04:33:38.881Z,62173.09
2023-02-28T04:34:42.945Z,62193.94
2023-02-28T04:35:44.981Z,62206.11
2023-02-28T04:37:10.104Z,62216.39
2023-02-28T04:37:57.252Z,62229.81
2023-02-28T04:38:59.931Z,62216.39
2023-02-28T04:40:02.424Z,62199.22
2023-02-28T04:41:05.728Z,62206.11
2023-02-28T04:42:08.157Z,62198.28
2023-02-28T04:43:10.193Z,62211.52
2023-02-28T04:44:12.691Z,62226.15
2023-02-28T04:45:14.578Z,62225.06
2023-02-28T04:46:16.770Z,62212.35
2023-02-28T04:47:20.653Z,62200.44
2023-02-28T04:48:24.383Z,62223.84
2023-02-28T04:49:28.348Z,62211.13
2023-02-28T04:50:30.602Z,62224.67
2023-02-28T04:51:33.013Z,62227.92
2023-02-28T04:52:34.902Z,62229.93
2023-02-28T04:53:38.674Z,62225.61
2023-02-28T04:54:40.634Z,62231.71
2023-02-28T04:55:43.588Z,62227.24
2023-02-28T04:56:47.082Z,62231.02
2023-02-28T04:57:50.268Z,62232.92
2023-02-28T04:58:53.266Z,62236.58
2023-02-28T04:59:55.953Z,62234.96
2023-02-28T05:01:06.800Z,62221.14
2023-02-28T05:02:08.904Z,62219.79
2023-02-28T05:03:11.257Z,62200.84
2023-02-28T05:04:13.271Z,62218.96
2023-02-28T05:05:15.293Z,62217.08
2023-02-28T05:06:20.690Z,62227.92
2023-02-28T05:07:22.904Z,62225.20
2023-02-28T05:08:24.967Z,62231.43
2023-02-28T05:09:28.649Z,62235.90
2023-02-28T05:10:32.186Z,62228.99
2023-02-28T05:11:35.198Z,62228.05
2023-02-28T05:12:37.500Z,62239.83
2023-02-28T05:13:39.652Z,62237.65
2023-02-28T05:14:42.133Z,62237.65
2023-02-28T05:15:44.109Z,62243.48
2023-02-28T05:16:46.492Z,62241.59
2023-02-28T05:17:48.500Z,62244.30
2023-02-28T05:18:50.561Z,62252.14
2023-02-28T05:19:52.824Z,62250.12
2023-02-28T05:20:55.344Z,62218.70
2023-02-28T05:21:57.686Z,62206.79
2023-02-28T05:23:00.899Z,62223.84
2023-02-28T05:24:06.100Z,62239.15
2023-02-28T05:25:20.506Z,62206.94
2023-02-28T05:26:23.499Z,62239.15
2023-02-28T05:27:25.585Z,62225.61
2023-02-28T05:28:27.740Z,62219.64
2023-02-28T05:29:29.750Z,62209.36
2023-02-28T05:30:33.851Z,62228.31
2023-02-28T05:31:36.582Z,62214.64
2023-02-28T05:32:39.569Z,62220.20
2023-02-28T05:33:41.721Z,62234.81
2023-02-28T05:34:44.939Z,62240.10
2023-02-28T05:35:46.901Z,62241.85
2023-02-28T05:36:49.286Z,62240.10
2023-02-28T05:37:51.377Z,62232.92
2023-02-28T05:38:53.526Z,62232.24
2023-02-28T05:39:56.346Z,62241.72
2023-02-28T05:40:58.946Z,62235.90
2023-02-28T05:42:00.948Z,62238.34
2023-02-28T05:43:03.217Z,62208.41
2023-02-28T05:44:05.564Z,62219.64
2023-02-28T05:45:09.282Z,62214.23
2023-02-28T05:46:12.690Z,62202.86
2023-02-28T05:47:16.036Z,62203.54
2023-02-28T05:48:18.095Z,62217.48
2023-02-28T05:49:20.074Z,62224.26
2023-02-28T05:50:23.170Z,62228.99
2023-02-28T05:51:25.058Z,62234.81
2023-02-28T05:52:28.374Z,62237.93
2023-02-28T05:53:31.306Z,62232.92
2023-02-28T05:54:33.438Z,62237.27
2023-02-28T05:55:35.312Z,62233.46
2023-02-28T05:56:37.692Z,62235.08
2023-02-28T05:57:39.602Z,62238.75
2023-02-28T05:58:41.647Z,62230.49
2023-02-28T05:59:43.618Z,62244.16
2023-02-28T06:00:46.672Z,62244.57
2023-02-28T06:01:48.718Z,62233.33
2023-02-28T06:02:50.597Z,62243.62
2023-02-28T06:03:52.849Z,62243.62
2023-02-28T06:04:54.745Z,62245.66
2023-02-28T06:05:56.629Z,62256.63
2023-02-28T06:06:58.851Z,62260.27
2023-02-28T06:08:00.795Z,62226.00
2023-02-28T06:09:05.095Z,62228.99
2023-02-28T06:10:09.665Z,62240.37
2023-02-28T06:11:12.022Z,62248.76
2023-02-28T06:12:14.093Z,62251.07
2023-02-28T06:13:16.462Z,62257.57
2023-02-28T06:14:20.051Z,62264.06
2023-02-28T06:15:22.220Z,62264.61
2023-02-28T06:16:25.393Z,62272.06
2023-02-28T06:17:27.852Z,62255.95
2023-02-28T06:18:29.756Z,62261.48
2023-02-28T06:19:32.669Z,62262.45
2023-02-28T06:20:34.960Z,62256.48
2023-02-28T06:21:38.435Z,62269.49
2023-02-28T06:22:40.695Z,62241.46
2023-02-28T06:23:42.800Z,62261.89
2023-02-28T06:24:44.703Z,62233.74
2023-02-28T06:25:47.198Z,62215.45
2023-02-28T06:26:49.429Z,62244.71
2023-02-28T06:27:51.460Z,62236.97
2023-02-28T06:28:54.314Z,62234.40
2023-02-28T06:29:56.948Z,62244.16
2023-02-28T06:30:59.240Z,62245.66
2023-02-28T06:32:02.276Z,62256.07
2023-02-28T06:33:06.564Z,62247.00
2023-02-28T06:34:08.538Z,62254.45
2023-02-28T06:35:10.481Z,62267.99
2023-02-28T06:36:15.496Z,62251.61
2023-02-28T06:37:18.842Z,62248.35
2023-02-28T06:38:20.764Z,62257.28
2023-02-28T06:39:22.668Z,62255.54
2023-02-28T06:40:24.780Z,62246.19
2023-02-28T06:41:29.181Z,62243.09
2023-02-28T06:42:31.827Z,62251.20
2023-02-28T06:43:37.818Z,62245.93
2023-02-28T06:44:39.885Z,62249.71
2023-02-28T06:45:44.033Z,62259.32
2023-02-28T06:46:47.310Z,62255.54
2023-02-28T06:47:49.417Z,62265.15
2023-02-28T06:48:51.454Z,62265.68
2023-02-28T06:49:54.565Z,62256.07
2023-02-28T06:51:13.372Z,62255.39
2023-02-28T06:52:15.716Z,62255.00
2023-02-28T06:53:19.119Z,62266.37
2023-02-28T06:54:21.378Z,62275.59
2023-02-28T06:55:23.289Z,62246.61
2023-02-28T06:56:25.534Z,62239.15
2023-02-28T06:57:34.642Z,62239.69
2023-02-28T06:58:37.384Z,62221.80
2023-02-28T06:59:39.275Z,62203.41
2023-02-28T07:00:42.980Z,62228.86
2023-02-28T07:01:44.950Z,62219.92
2023-02-28T07:02:47.132Z,62232.65
2023-02-28T07:03:49.039Z,62239.15
2023-02-28T07:04:51.101Z,62238.06
2023-02-28T07:05:54.343Z,62248.35
2023-02-28T07:06:56.748Z,62218.57
2023-02-28T07:07:58.691Z,62237.65
2023-02-28T07:09:01.065Z,62232.92
2023-02-28T07:10:04.352Z,62223.73
2023-02-28T07:11:07.424Z,62228.86
2023-02-28T07:12:09.323Z,62240.22
2023-02-28T07:13:11.320Z,62223.43
2023-02-28T07:14:13.405Z,62245.66
2023-02-28T07:15:15.557Z,62236.03
2023-02-28T07:16:19.848Z,62243.48
2023-02-28T07:17:22.024Z,62247.28
2023-02-28T07:18:24.811Z,62212.07
2023-02-28T07:19:26.822Z,62211.13
2023-02-28T07:20:29.988Z,62225.06
2023-02-28T07:21:32.479Z,62242.40
2023-02-28T07:22:35.555Z,62224.37
2023-02-28T07:23:39.174Z,62236.44
2023-02-28T07:24:41.071Z,62235.37
2023-02-28T07:25:43.315Z,62250.51
2023-02-28T07:26:46.299Z,62258.64
2023-02-28T07:27:48.405Z,62259.88
2023-02-28T07:28:50.957Z,62235.08
2023-02-28T07:29:54.451Z,62252.43
2023-02-28T07:30:56.713Z,62252.82
2023-02-28T07:31:58.756Z,62253.23
2023-02-28T07:33:00.805Z,62243.77
2023-02-28T07:34:03.173Z,62221.80
2023-02-28T07:35:06.173Z,62203.41
2023-02-28T07:36:12.696Z,62200.16
2023-02-28T07:37:15.188Z,62222.77
2023-02-28T07:38:17.116Z,62225.20
2023-02-28T07:39:19.355Z,62237.53
2023-02-28T07:40:21.331Z,62240.78
2023-02-28T07:41:23.206Z,62221.80
2023-02-28T07:42:25.091Z,62188.25
2023-02-28T07:43:27.102Z,62203.00
2023-02-28T07:44:29.674Z,62231.43
2023-02-28T07:45:32.092Z,62242.00
2023-02-28T07:46:34.838Z,62254.45
2023-02-28T07:47:38.370Z,62255.00
2023-02-28T07:48:40.357Z,62262.30
2023-02-28T07:49:42.252Z,62238.75
2023-02-28T07:50:44.338Z,62218.96
2023-02-28T07:51:46.351Z,62221.27
2023-02-28T07:52:48.257Z,62201.38
2023-02-28T07:53:50.129Z,62210.57
2023-02-28T07:54:52.500Z,62182.82
2023-02-28T07:57:08.430Z,62214.23
2023-02-28T07:58:10.321Z,62224.67
2023-02-28T07:59:12.313Z,62226.68
2023-02-28T08:00:15.473Z,62234.81
2023-02-28T08:01:17.629Z,62216.95
2023-02-28T08:02:19.609Z,62215.18
2023-02-28T08:03:22.989Z,62209.50
2023-02-28T08:04:25.597Z,62210.45
2023-02-28T08:05:27.489Z,62224.80
2023-02-28T08:06:29.483Z,62199.75
2023-02-28T08:07:31.404Z,62199.75
2023-02-28T08:08:34.015Z,62212.76
2023-02-28T08:09:36.270Z,62193.66
2023-02-28T08:10:38.475Z,62209.10
2023-02-28T08:11:40.887Z,62229.55
2023-02-28T08:12:42.942Z,62213.83
2023-02-28T08:13:46.669Z,62247.95
2023-02-28T08:14:48.558Z,62257.02
2023-02-28T08:15:50.476Z,62266.37
2023-02-28T08:16:52.717Z,62270.17
2023-02-28T08:17:54.736Z,62276.53
2023-02-28T08:18:56.606Z,62274.91
2023-02-28T08:19:58.504Z,62262.58
2023-02-28T08:21:10.099Z,62266.37
2023-02-28T08:22:12.032Z,62283.57
2023-02-28T08:23:14.034Z,62260.42
2023-02-28T08:24:16.018Z,62223.58
2023-02-28T08:25:19.242Z,62242.94
2023-02-28T08:26:21.808Z,62232.80
2023-02-28T08:27:23.971Z,62225.61
2023-02-28T08:28:27.364Z,62243.88
2023-02-28T08:29:29.594Z,62252.82
2023-02-28T08:30:32.090Z,62243.62
2023-02-28T08:31:34.042Z,62240.78
2023-02-28T08:32:36.463Z,62253.91
2023-02-28T08:33:39.029Z,62230.61
2023-02-28T08:34:41.050Z,62248.50
2023-02-28T08:35:42.996Z,62248.50
2023-02-28T08:36:45.283Z,62249.98
2023-02-28T08:37:51.709Z,62254.45
2023-02-28T08:38:53.631Z,62234.96
2023-02-28T08:39:56.483Z,62246.73
2023-02-28T08:41:01.357Z,62239.69
2023-02-28T08:42:08.198Z,62232.24
2023-02-28T08:43:08.462Z,62251.75
2023-02-28T08:44:10.580Z,62244.71
2023-02-28T08:45:13.376Z,62268.55
2023-02-28T08:46:15.609Z,62249.98
2023-02-28T08:47:18.168Z,62243.09
2023-02-28T08:48:20.929Z,62253.23
2023-02-28T08:49:23.113Z,62273.81
2023-02-28T08:50:26.570Z,62295.50
2023-02-28T08:51:29.647Z,62296.86
2023-02-28T08:52:32.986Z,62297.27
2023-02-28T08:53:36.707Z,62318.80
2023-02-28T08:54:38.775Z,62317.59
2023-02-28T08:55:40.642Z,62321.80
2023-02-28T08:56:42.901Z,62313.39
2023-02-28T08:57:44.877Z,62323.28
2023-02-28T08:58:49.725Z,62331.95
2023-02-28T08:59:52.020Z,62326.68
2023-02-28T09:00:55.012Z,62316.36
2023-02-28T09:01:58.093Z,62349.85
2023-02-28T09:02:59.977Z,62349.85
2023-02-28T09:04:02.033Z,62365.03
2023-02-28T09:05:05.134Z,62377.91
2023-02-28T09:06:08.755Z,62374.24
2023-02-28T09:07:10.662Z,62322.59
2023-02-28T09:08:12.529Z,62335.74
2023-02-28T09:09:16.379Z,62365.30
2023-02-28T09:10:19.644Z,62323.69
2023-02-28T09:11:21.971Z,62334.52
2023-02-28T09:12:25.873Z,62331.82
2023-02-28T09:13:28.742Z,62327.21
2023-02-28T09:14:31.127Z,62353.49
2023-02-28T09:15:33.107Z,62359.47
2023-02-28T09:16:36.536Z,62359.06
2023-02-28T09:17:38.702Z,62368.41
2023-02-28T09:18:40.987Z,62381.85
2023-02-28T09:19:43.449Z,62391.59
2023-02-28T09:20:46.658Z,62405.03
2023-02-28T09:21:48.563Z,62407.34
2023-02-28T09:22:50.570Z,62401.51
2023-02-28T09:23:52.703Z,62392.28
2023-02-28T09:24:54.576Z,62374.66
2023-02-28T09:25:57.714Z,62387.27
2023-02-28T09:27:05.285Z,62399.47
2023-02-28T09:28:06.427Z,62388.75
2023-02-28T09:29:08.733Z,62359.47
2023-02-28T09:30:12.521Z,62361.22
2023-02-28T09:31:23.562Z,62354.05
2023-02-28T09:32:25.696Z,62357.43
2023-02-28T09:33:27.909Z,62376.41
2023-02-28T09:34:29.944Z,62381.85
2023-02-28T09:35:31.879Z,62380.48
2023-02-28T09:36:44.240Z,62386.05
2023-02-28T09:37:38.399Z,62393.64
2023-02-28T09:38:40.493Z,62358.11
2023-02-28T09:39:42.619Z,62370.99
2023-02-28T09:40:51.374Z,62335.88
2023-02-28T09:41:55.508Z,62374.66
2023-02-28T09:43:00.150Z,62371.67
2023-02-28T09:44:04.685Z,62384.96
2023-02-28T09:45:16.508Z,62383.48
2023-02-28T09:46:34.998Z,62388.75
2023-02-28T09:48:51.518Z,62406.79
2023-02-28T09:49:55.358Z,62398.79
2023-02-28T09:51:07.170Z,62397.57
2023-02-28T09:52:22.026Z,62376.41
2023-02-28T09:53:36.299Z,62387.68
2023-02-28T09:54:39.018Z,62359.59
2023-02-28T09:55:47.170Z,62388.75
2023-02-28T09:57:17.866Z,62389.43
2023-02-28T09:58:21.623Z,62398.11
2023-02-28T09:59:32.985Z,62378.45
2023-02-28T10:00:38.883Z,62397.43
2023-02-28T10:02:03.392Z,62394.73
2023-02-28T10:03:21.089Z,62402.46
2023-02-28T10:04:39.127Z,62357.70
2023-02-28T10:05:51.007Z,62376.82
2023-02-28T10:06:53.696Z,62356.21
2023-02-28T10:08:27.053Z,62392.69
2023-02-28T10:09:32.899Z,62375.46
2023-02-28T10:10:44.304Z,62388.34
2023-02-28T10:11:50.918Z,62344.96
2023-02-28T10:12:56.324Z,62347.95
2023-02-28T10:14:04.981Z,62356.75
2023-02-28T10:15:10.867Z,62342.25
2023-02-28T10:16:26.232Z,62353.64
2023-02-28T10:17:44.271Z,62345.91
2023-02-28T10:18:51.071Z,62361.78
2023-02-28T10:21:23.370Z,62365.98
2023-02-28T10:22:32.134Z,62337.92
2023-02-28T10:23:38.467Z,62373.71
2023-02-28T10:24:47.088Z,62381.17
2023-02-28T10:25:52.777Z,62360.83
2023-02-28T10:26:58.583Z,62382.80
2023-02-28T10:28:15.308Z,62368.29
2023-02-28T10:29:17.489Z,62391.59
2023-02-28T10:30:20.887Z,62395.27
2023-02-28T10:31:24.745Z,62379.12
2023-02-28T10:32:30.693Z,62378.98
2023-02-28T10:33:36.000Z,62349.17
2023-02-28T10:34:38.164Z,62355.27
2023-02-28T10:35:40.058Z,62375.34
2023-02-28T10:36:43.671Z,62402.73
2023-02-28T10:37:51.223Z,62375.87
2023-02-28T10:38:53.323Z,62397.43
2023-02-28T10:39:55.564Z,62398.66
2023-02-28T10:41:12.569Z,62413.03
2023-02-28T10:42:24.007Z,62419.13
2023-02-28T10:43:25.874Z,62419.55
2023-02-28T10:44:27.991Z,62417.65
2023-02-28T10:45:32.589Z,62414.39
2023-02-28T10:46:35.985Z,62402.04
2023-02-28T10:47:51.047Z,62375.46
2023-02-28T10:49:03.278Z,62400.42
2023-02-28T10:50:07.406Z,62426.74
2023-02-28T10:51:13.102Z,62413.71
2023-02-28T10:52:19.404Z,62445.86
2023-02-28T10:53:30.795Z,62472.32
2023-02-28T10:54:34.146Z,62454.14
2023-02-28T10:55:37.764Z,62439.63
2023-02-28T10:56:40.017Z,62400.27
2023-02-28T10:57:41.927Z,62433.52
2023-02-28T10:59:06.166Z,62438.95
2023-02-28T11:01:37.043Z,62505.98
2023-02-28T11:02:39.752Z,62492.01
2023-02-28T11:03:41.903Z,62497.98
2023-02-28T11:04:43.825Z,62454.00
2023-02-28T11:05:47.165Z,62470.83
2023-02-28T11:07:08.263Z,62477.35
2023-02-28T11:08:16.409Z,62447.36
2023-02-28T11:09:25.399Z,62427.40
2023-02-28T11:10:31.543Z,62454.55
2023-02-28T11:11:45.879Z,62461.61
2023-02-28T11:12:53.017Z,62490.51
2023-02-28T11:13:56.132Z,62517.12
2023-02-28T11:16:16.844Z,62491.06
2023-02-28T11:17:28.494Z,62499.19
2023-02-28T11:18:50.398Z,62481.70
2023-02-28T11:19:56.174Z,62490.92
2023-02-28T11:21:02.074Z,62490.51
2023-02-28T11:22:05.172Z,62486.57
2023-02-28T11:23:11.560Z,62480.19
2023-02-28T11:24:32.555Z,62500.14
2023-02-28T11:25:38.068Z,62489.29
2023-02-28T11:26:43.841Z,62488.61
2023-02-28T11:27:49.166Z,62479.12
2023-02-28T11:28:54.919Z,62469.88
2023-02-28T11:29:58.753Z,62451.69
2023-02-28T11:31:17.918Z,62432.16
2023-02-28T11:32:24.763Z,62464.31
2023-02-28T11:33:30.048Z,62446.95
2023-02-28T11:34:32.744Z,62467.98
2023-02-28T11:35:38.477Z,62480.88
2023-02-28T11:36:40.855Z,62451.16
2023-02-28T11:37:43.368Z,62444.78
2023-02-28T11:38:45.506Z,62456.16
2023-02-28T11:39:47.847Z,62441.11
2023-02-28T11:40:59.623Z,62467.71
2023-02-28T11:42:20.676Z,62475.04
2023-02-28T11:45:04.819Z,62437.05
2023-02-28T11:46:39.166Z,62474.36
2023-02-28T11:48:05.698Z,62468.52
2023-02-28T11:49:34.584Z,62466.50
2023-02-28T11:50:40.437Z,62498.39
2023-02-28T11:52:01.500Z,62513.86
2023-02-28T11:53:16.233Z,62522.55
2023-02-28T11:54:37.557Z,62531.79
2023-02-28T11:55:43.314Z,62533.28
2023-02-28T11:56:54.407Z,62538.17
2023-02-28T11:58:12.368Z,62542.11
2023-02-28T11:59:25.437Z,62532.74
2023-02-28T12:00:40.537Z,62537.49
2023-02-28T12:02:01.459Z,62473.00
2023-02-28T12:03:07.401Z,62461.47
2023-02-28T12:04:19.261Z,62478.98
2023-02-28T12:05:41.830Z,62484.54
2023-02-28T12:06:59.895Z,62491.87
2023-02-28T12:08:22.621Z,62493.23
2023-02-28T12:09:34.617Z,62479.12
2023-02-28T12:10:56.936Z,62489.43
2023-02-28T12:12:21.751Z,62497.98
2023-02-28T12:13:28.378Z,62510.34
2023-02-28T12:14:51.076Z,62504.91
2023-02-28T12:16:21.819Z,62494.18
2023-02-28T12:17:45.563Z,62516.18
2023-02-28T12:19:23.469Z,62501.09
2023-02-28T12:20:50.826Z,62466.50
2023-02-28T12:22:14.382Z,62463.24
2023-02-28T12:23:36.829Z,62482.36
2023-02-28T12:24:54.409Z,62500.14
2023-02-28T12:26:09.428Z,62512.38
2023-02-28T12:27:15.110Z,62475.57
2023-02-28T12:28:20.992Z,62456.31
2023-02-28T12:29:33.351Z,62470.15
2023-02-28T12:30:39.208Z,62491.33
2023-02-28T12:32:06.188Z,62455.77
2023-02-28T12:33:12.105Z,62463.10
2023-02-28T12:34:17.991Z,62489.15
2023-02-28T12:35:23.794Z,62479.51
2023-02-28T12:36:26.420Z,62462.00
2023-02-28T12:37:43.976Z,62473.00
2023-02-28T12:38:50.250Z,62478.44
2023-02-28T12:39:56.038Z,62482.36
2023-02-28T12:41:05.024Z,62507.07
2023-02-28T12:42:13.904Z,62492.41
2023-02-28T12:43:19.024Z,62496.49
2023-02-28T12:44:27.959Z,62507.07
2023-02-28T12:45:52.191Z,62507.75
2023-02-28T12:47:01.506Z,62500.14
2023-02-28T12:48:06.672Z,62499.46
2023-02-28T12:49:12.337Z,62474.09
2023-02-28T12:50:15.692Z,62451.69
2023-02-28T12:51:19.255Z,62473.41
2023-02-28T12:52:40.473Z,62461.20
2023-02-28T12:53:52.249Z,62453.73
2023-02-28T12:54:58.049Z,62451.98
2023-02-28T12:56:09.681Z,62486.71
2023-02-28T12:57:33.742Z,62507.07
2023-02-28T12:58:45.881Z,62494.18
2023-02-28T12:59:51.554Z,62499.07
2023-02-28T13:01:06.226Z,62510.60
2023-02-28T13:02:19.688Z,62516.30
2023-02-28T13:03:31.236Z,62511.02
2023-02-28T13:04:40.944Z,62492.69
2023-02-28T13:06:15.753Z,62489.70
2023-02-28T13:07:23.973Z,62515.91
2023-02-28T13:09:03.452Z,62524.71
2023-02-28T13:10:08.297Z,62491.46
2023-02-28T13:11:30.546Z,62490.38
2023-02-28T13:12:33.113Z,62509.80